createdAt,value
2022-08-05T00:01:54.855Z,13.00
2022-08-05T00:04:36.119Z,10.53
2022-08-05T00:07:27.114Z,12.93
2022-08-05T00:09:52.754Z,14.73
2022-08-05T00:12:24.345Z,12.00
2022-08-05T00:14:52.701Z,14.53
2022-08-05T00:17:21.864Z,12.37
2022-08-05T00:20:01.875Z,10.27
2022-08-05T00:22:31.349Z,10.53
2022-08-05T00:24:59.571Z,8.73
2022-08-05T00:27:36.315Z,12.40
2022-08-05T00:30:11.340Z,11.40
2022-08-05T00:32:40.488Z,10.30
2022-08-05T00:35:10.221Z,14.80
2022-08-05T00:37:52.993Z,9.77
2022-08-05T00:40:27.149Z,10.03
2022-08-05T00:43:00.943Z,15.53
2022-08-05T00:45:42.866Z,12.40
2022-08-05T00:48:13.871Z,10.93
2022-08-05T00:50:46.517Z,11.53
2022-08-05T00:53:44.862Z,9.80
2022-08-05T00:56:05.631Z,11.60
2022-08-05T00:58:38.867Z,14.93
2022-08-05T01:01:12.349Z,9.20
2022-08-05T01:03:41.534Z,11.60
2022-08-05T01:06:15.291Z,13.90
2022-08-05T01:08:44.801Z,13.47
2022-08-05T01:11:22.237Z,11.57
2022-08-05T01:14:15.507Z,15.17
2022-08-05T01:16:52.423Z,10.13
2022-08-05T01:20:01.137Z,11.73
2022-08-05T01:22:43.291Z,14.70
2022-08-05T01:25:53.326Z,6.67
2022-08-05T01:28:34.157Z,14.40
2022-08-05T01:31:11.566Z,11.00
2022-08-05T01:33:49.175Z,13.17
2022-08-05T01:36:27.908Z,15.77
2022-08-05T01:39:00.219Z,13.93
2022-08-05T01:41:35.662Z,17.97
2022-08-05T01:44:09.926Z,11.87
2022-08-05T01:46:46.302Z,15.07
2022-08-05T01:49:24.087Z,10.53
2022-08-05T01:52:01.010Z,11.43
2022-08-05T01:54:34.384Z,9.47
2022-08-05T01:58:13.647Z,14.53
2022-08-05T02:00:12.649Z,9.90
2022-08-05T02:02:54.325Z,10.57
2022-08-05T02:05:28.565Z,17.90
2022-08-05T02:08:00.242Z,17.20
2022-08-05T02:10:35.984Z,14.43
2022-08-05T02:13:15.908Z,13.60
2022-08-05T02:15:51.849Z,13.20
2022-08-05T02:18:30.926Z,24.00
2022-08-05T02:21:14.795Z,12.60
2022-08-05T02:23:49.122Z,11.47
2022-08-05T02:26:26.626Z,14.77
2022-08-05T02:28:58.302Z,12.30
2022-08-05T02:31:34.863Z,11.03
2022-08-05T02:34:09.886Z,13.70
2022-08-05T02:36:43.773Z,10.60
2022-08-05T02:39:14.080Z,13.83
2022-08-05T02:42:01.347Z,11.77
2022-08-05T02:44:33.085Z,12.90
2022-08-05T02:47:06.269Z,11.83
2022-08-05T02:49:40.569Z,12.70
2022-08-05T02:52:29.935Z,9.80
2022-08-05T02:55:01.890Z,10.60
2022-08-05T02:58:11.015Z,15.93
2022-08-05T03:00:25.489Z,8.13
2022-08-05T03:02:59.713Z,13.33
2022-08-05T03:06:54.540Z,12.20
2022-08-05T03:08:26.930Z,9.83
2022-08-05T03:11:41.169Z,8.07
2022-08-05T03:13:52.142Z,13.63
2022-08-05T03:16:32.137Z,10.27
2022-08-05T03:19:12.507Z,8.10
2022-08-05T03:21:48.681Z,11.47
2022-08-05T03:24:27.562Z,15.60
2022-08-05T03:26:59.638Z,8.43
2022-08-05T03:29:45.721Z,9.50
2022-08-05T03:32:19.512Z,8.87
2022-08-05T03:34:50.952Z,8.10
2022-08-05T03:37:22.570Z,8.00
2022-08-05T03:39:59.198Z,7.30
2022-08-05T03:42:32.394Z,7.60
2022-08-05T03:45:21.134Z,7.40
2022-08-05T03:47:50.372Z,10.30
2022-08-05T03:50:21.314Z,10.57
2022-08-05T03:55:50.443Z,9.40
2022-08-05T03:56:10.514Z,13.20
2022-08-05T03:58:45.552Z,11.07
2022-08-05T04:01:16.326Z,8.80
2022-08-05T04:04:05.483Z,9.30
2022-08-05T04:06:47.751Z,7.93
2022-08-05T04:09:25.924Z,8.90
2022-08-05T04:11:56.572Z,7.83
2022-08-05T04:14:29.403Z,15.70
2022-08-05T04:17:00.940Z,9.53
2022-08-05T04:19:31.906Z,9.80
2022-08-05T04:22:08.863Z,13.60
2022-08-05T04:24:44.563Z,12.10
2022-08-05T04:27:33.185Z,14.70
2022-08-05T04:30:11.989Z,10.57
2022-08-05T04:32:40.353Z,10.00
2022-08-05T04:35:19.344Z,8.80
2022-08-05T04:38:01.349Z,13.50
2022-08-05T04:40:35.433Z,10.13
2022-08-05T04:43:04.151Z,15.13
2022-08-05T04:45:48.777Z,13.90
2022-08-05T04:48:27.035Z,10.83
2022-08-05T04:51:02.753Z,7.53
2022-08-05T04:53:40.222Z,13.10
2022-08-05T04:56:32.912Z,9.80
2022-08-05T04:58:58.415Z,15.17
2022-08-05T05:02:05.676Z,8.37
2022-08-05T05:04:15.411Z,13.20
2022-08-05T05:06:49.355Z,12.23
2022-08-05T05:09:22.053Z,17.50
2022-08-05T05:11:55.672Z,20.40
2022-08-05T05:14:31.234Z,17.90
2022-08-05T05:17:00.787Z,12.53
2022-08-05T05:19:37.146Z,9.67
2022-08-05T05:22:23.818Z,13.63
2022-08-05T05:24:57.409Z,15.13
2022-08-05T05:27:44.375Z,9.93
2022-08-05T05:30:29.226Z,12.53
2022-08-05T05:33:09.121Z,8.80
2022-08-05T05:35:46.867Z,4.77
2022-08-05T05:38:22.568Z,8.10
2022-08-05T05:40:57.372Z,10.40
2022-08-05T05:43:54.626Z,11.40
2022-08-05T05:46:17.638Z,5.93
2022-08-05T05:48:48.977Z,9.10
2022-08-05T05:51:22.539Z,5.30
2022-08-05T05:53:57.828Z,7.10
2022-08-05T05:56:33.697Z,6.50
2022-08-05T05:59:05.891Z,6.80
2022-08-05T06:01:38.075Z,10.40
2022-08-05T06:04:11.753Z,7.70
2022-08-05T06:06:42.820Z,5.93
2022-08-05T06:09:17.667Z,8.37
2022-08-05T06:12:02.118Z,5.50
2022-08-05T06:14:31.566Z,5.23
2022-08-05T06:17:02.153Z,4.97
2022-08-05T06:19:56.523Z,6.73
2022-08-05T06:22:33.706Z,4.20
2022-08-05T06:25:25.180Z,27.83
2022-08-05T06:28:10.932Z,9.90
2022-08-05T06:30:41.444Z,9.20
2022-08-05T06:33:10.860Z,8.67
2022-08-05T06:36:08.008Z,6.80
2022-08-05T06:38:36.627Z,4.93
2022-08-05T06:41:07.745Z,5.03
2022-08-05T06:43:57.808Z,5.03
2022-08-05T06:46:29.673Z,7.90
2022-08-05T06:48:59.213Z,9.70
2022-08-05T06:51:30.007Z,3.70
2022-08-05T06:53:59.940Z,3.40
2022-08-05T06:56:28.880Z,9.33
2022-08-05T06:58:58.692Z,6.53
2022-08-05T07:01:32.308Z,4.83
2022-08-05T07:04:03.161Z,5.53
2022-08-05T07:06:31.762Z,5.83
2022-08-05T07:09:03.856Z,6.37
2022-08-05T07:11:37.296Z,3.10
2022-08-05T07:14:30.313Z,8.40
2022-08-05T07:18:00.541Z,3.20
2022-08-05T07:20:34.139Z,4.17
2022-08-05T07:22:39.352Z,3.27
2022-08-05T07:25:54.273Z,6.27
2022-08-05T07:28:07.279Z,4.60
2022-08-05T07:30:41.419Z,2.70
2022-08-05T07:33:15.931Z,4.13
2022-08-05T07:36:02.607Z,4.70
2022-08-05T07:38:43.131Z,5.37
2022-08-05T07:42:09.119Z,3.70
2022-08-05T07:44:18.718Z,3.47
2022-08-05T07:46:50.495Z,3.53
2022-08-05T07:49:19.728Z,2.70
2022-08-05T07:51:52.944Z,2.33
2022-08-05T07:54:31.267Z,2.70
2022-08-05T07:57:41.997Z,2.83
2022-08-05T07:59:51.178Z,3.87
2022-08-05T08:02:30.891Z,3.50
2022-08-05T08:05:15.269Z,3.07
2022-08-05T08:07:59.603Z,2.50
2022-08-05T08:10:30.282Z,2.43
2022-08-05T08:12:59.051Z,3.20
2022-08-05T08:16:33.605Z,2.73
2022-08-05T08:18:20.853Z,2.50
2022-08-05T08:21:02.963Z,2.23
2022-08-05T08:24:02.637Z,5.73
2022-08-05T08:26:26.558Z,3.53
2022-08-05T08:28:59.836Z,2.03
2022-08-05T08:31:44.075Z,3.10
2022-08-05T08:34:14.492Z,1.60
2022-08-05T08:36:48.810Z,4.80
2022-08-05T08:39:19.208Z,5.03
2022-08-05T08:41:59.442Z,1.87
2022-08-05T08:45:22.624Z,2.47
2022-08-05T08:48:06.915Z,6.67
2022-08-05T08:50:31.618Z,5.10
2022-08-05T08:53:11.914Z,1.83
2022-08-05T08:56:04.510Z,2.70
2022-08-05T08:58:43.839Z,2.07
2022-08-05T09:01:18.074Z,5.33
2022-08-05T09:03:54.306Z,4.90
2022-08-05T09:06:29.387Z,4.63
2022-08-05T09:09:01.397Z,3.40
2022-08-05T09:11:50.706Z,3.40
2022-08-05T09:14:57.544Z,2.20
2022-08-05T09:17:11.550Z,3.10
2022-08-05T09:20:02.378Z,4.50
2022-08-05T09:23:09.050Z,4.37
2022-08-05T09:26:00.066Z,2.70
2022-08-05T09:28:31.959Z,4.90
2022-08-05T09:31:22.969Z,3.50
2022-08-05T09:33:56.682Z,3.57
2022-08-05T09:36:27.823Z,2.90
2022-08-05T09:39:18.049Z,2.70
2022-08-05T09:42:01.409Z,3.47
2022-08-05T09:44:39.445Z,2.67
2022-08-05T09:47:12.616Z,4.50
2022-08-05T09:50:01.027Z,4.10
2022-08-05T09:52:33.798Z,3.20
2022-08-05T09:55:06.355Z,2.23
2022-08-05T09:57:58.834Z,13.63
2022-08-05T10:00:30.639Z,2.10
2022-08-05T10:02:59.440Z,4.23
2022-08-05T10:05:32.999Z,3.70
2022-08-05T10:08:35.353Z,2.90
2022-08-05T10:10:55.011Z,3.33
2022-08-05T10:13:48.047Z,5.00
2022-08-05T10:16:34.367Z,3.10
2022-08-05T10:19:11.745Z,2.53
2022-08-05T10:21:41.160Z,3.33
2022-08-05T10:24:13.480Z,4.70
2022-08-05T10:26:51.244Z,3.00
2022-08-05T10:29:24.090Z,3.73
2022-08-05T10:33:01.561Z,5.80
2022-08-05T10:35:01.404Z,4.73
2022-08-05T10:37:40.498Z,6.83
2022-08-05T10:40:28.303Z,1.73
2022-08-05T10:43:11.115Z,1.40
2022-08-05T10:45:42.028Z,4.27
2022-08-05T10:48:52.933Z,2.07
2022-08-05T10:51:29.325Z,2.30
2022-08-05T10:54:01.763Z,5.13
2022-08-05T10:56:47.139Z,2.57
2022-08-05T11:00:02.450Z,2.30
2022-08-05T11:02:37.571Z,4.40
2022-08-05T11:05:07.604Z,1.50
2022-08-05T11:08:02.438Z,2.53
2022-08-05T11:10:37.266Z,1.50
2022-08-05T11:13:08.703Z,3.43
2022-08-05T11:16:00.576Z,5.97
2022-08-05T11:18:34.087Z,2.43
2022-08-05T11:21:11.284Z,1.40
2022-08-05T11:24:02.502Z,3.00
2022-08-05T11:26:34.458Z,6.00
2022-08-05T11:29:13.116Z,2.07
2022-08-05T11:31:54.449Z,1.40
2022-08-05T11:34:51.479Z,1.50
2022-08-05T11:38:26.679Z,2.77
2022-08-05T11:41:34.545Z,2.73
2022-08-05T11:44:04.623Z,1.50
2022-08-05T11:47:09.807Z,1.23
2022-08-05T11:49:28.468Z,2.87
2022-08-05T11:51:57.917Z,3.17
2022-08-05T11:54:33.931Z,1.47
2022-08-05T11:57:08.270Z,1.73
2022-08-05T11:59:55.852Z,3.07
2022-08-05T12:02:33.167Z,3.33
2022-08-05T12:05:07.514Z,1.73
2022-08-05T12:08:09.334Z,1.53
2022-08-05T12:10:43.652Z,2.87
2022-08-05T12:13:47.456Z,2.20
2022-08-05T12:16:14.469Z,1.50
2022-08-05T12:18:49.489Z,1.10
2022-08-05T12:21:26.987Z,1.87
2022-08-05T12:24:04.972Z,3.20
2022-08-05T12:26:35.425Z,4.33
2022-08-05T12:29:09.454Z,5.37
2022-08-05T12:31:50.216Z,2.17
2022-08-05T12:34:28.199Z,0.93
2022-08-05T12:37:00.964Z,1.80
2022-08-05T12:39:37.364Z,2.70
2022-08-05T12:42:14.278Z,1.50
2022-08-05T12:44:45.993Z,2.23
2022-08-05T12:47:30.634Z,1.40
2022-08-05T12:50:03.388Z,3.17
2022-08-05T12:52:39.315Z,1.00
2022-08-05T12:55:23.826Z,1.43
2022-08-05T12:58:50.869Z,1.13
2022-08-05T13:02:00.418Z,1.60
2022-08-05T13:03:39.068Z,2.13
2022-08-05T13:06:17.366Z,1.53
2022-08-05T13:08:51.942Z,1.80
2022-08-05T13:12:02.315Z,4.73
2022-08-05T13:14:24.931Z,2.07
2022-08-05T13:17:10.853Z,5.03
2022-08-05T13:19:52.196Z,1.57
2022-08-05T13:22:28.288Z,1.83
2022-08-05T13:25:05.462Z,2.10
2022-08-05T13:27:39.787Z,3.70
2022-08-05T13:30:34.318Z,5.73
2022-08-05T13:33:00.962Z,2.50
2022-08-05T13:35:43.269Z,8.07
2022-08-05T13:38:28.182Z,4.40
2022-08-05T13:41:03.928Z,1.10
2022-08-05T13:43:44.130Z,2.13
2022-08-05T13:46:43.725Z,2.27
2022-08-05T13:49:11.450Z,3.30
2022-08-05T13:51:46.035Z,5.80
2022-08-05T13:54:21.250Z,1.90
2022-08-05T13:56:54.977Z,2.10
2022-08-05T13:59:26.836Z,2.20
2022-08-05T14:01:56.564Z,1.37
2022-08-05T14:04:50.583Z,2.80
2022-08-05T14:08:00.498Z,2.17
2022-08-05T14:10:19.236Z,2.27
2022-08-05T14:12:58.335Z,2.23
2022-08-05T14:16:04.602Z,2.80
2022-08-05T14:18:18.625Z,2.10
2022-08-05T14:20:55.016Z,1.50
2022-08-05T14:23:26.925Z,3.23
2022-08-05T14:25:59.458Z,1.93
2022-08-05T14:28:30.662Z,2.90
2022-08-05T14:31:00.630Z,1.80
2022-08-05T14:33:57.003Z,1.40
2022-08-05T14:36:21.670Z,2.63
2022-08-05T14:38:51.215Z,3.10
2022-08-05T14:41:20.044Z,2.60
2022-08-05T14:43:59.434Z,2.17
2022-08-05T14:46:35.011Z,3.13
2022-08-05T14:49:08.175Z,1.20
2022-08-05T14:51:38.161Z,2.70
2022-08-05T14:54:28.717Z,3.97
2022-08-05T14:56:56.268Z,3.40
2022-08-05T14:59:29.504Z,3.13
2022-08-05T15:01:58.848Z,2.93
2022-08-05T15:04:28.976Z,3.33
2022-08-05T15:06:58.206Z,1.20
2022-08-05T15:09:54.278Z,3.93
2022-08-05T15:12:16.851Z,3.03
2022-08-05T15:14:49.882Z,7.90
2022-08-05T15:17:46.123Z,2.47
2022-08-05T15:20:17.095Z,3.03
2022-08-05T15:22:54.330Z,3.13
2022-08-05T15:25:51.667Z,1.57
2022-08-05T15:28:14.679Z,1.80
2022-08-05T15:30:46.645Z,5.53
2022-08-05T15:33:56.807Z,3.40
2022-08-05T15:36:17.537Z,2.77
2022-08-05T15:40:58.612Z,3.40
2022-08-05T15:41:56.171Z,4.40
2022-08-05T15:44:28.022Z,6.10
2022-08-05T15:47:03.703Z,1.87
2022-08-05T15:49:52.001Z,4.07
2022-08-05T15:52:51.646Z,2.17
2022-08-05T15:55:15.586Z,5.77
2022-08-05T15:57:45.979Z,4.60
2022-08-05T16:00:25.761Z,11.03
2022-08-05T16:03:02.576Z,6.20
2022-08-05T16:05:31.448Z,2.87
2022-08-05T16:08:00.187Z,8.17
2022-08-05T16:10:28.636Z,5.07
2022-08-05T16:12:57.628Z,5.87
2022-08-05T16:15:32.756Z,2.40
2022-08-05T16:18:04.391Z,3.90
2022-08-05T16:20:37.701Z,4.10
2022-08-05T16:23:08.511Z,2.40
2022-08-05T16:25:37.729Z,3.43
2022-08-05T16:28:09.686Z,4.40
2022-08-05T16:30:39.484Z,2.90
2022-08-05T16:33:11.284Z,4.40
2022-08-05T16:35:42.934Z,2.43
2022-08-05T16:38:24.654Z,4.50
2022-08-05T16:41:00.088Z,9.33
2022-08-05T16:43:32.534Z,5.97
2022-08-05T16:46:23.971Z,4.17
2022-08-05T16:48:52.851Z,9.50
2022-08-05T16:51:21.593Z,2.97
2022-08-05T16:54:02.777Z,3.30
2022-08-05T16:56:37.069Z,3.83
2022-08-05T16:59:10.305Z,5.47
2022-08-05T17:01:53.614Z,4.43
2022-08-05T17:04:27.178Z,3.80
2022-08-05T17:07:01.129Z,6.03
2022-08-05T17:09:38.995Z,4.73
2022-08-05T17:12:22.356Z,4.73
2022-08-05T17:14:51.414Z,11.13
2022-08-05T17:17:20.017Z,8.23
2022-08-05T17:19:55.850Z,2.33
2022-08-05T17:22:26.043Z,4.20
2022-08-05T17:24:57.553Z,3.60
2022-08-05T17:27:33.599Z,9.83
2022-08-05T17:30:07.045Z,6.23
2022-08-05T17:32:42.167Z,3.47
2022-08-05T17:35:15.616Z,4.90
2022-08-05T17:37:45.482Z,4.97
2022-08-05T17:40:22.278Z,3.97
2022-08-05T17:42:53.101Z,4.73
2022-08-05T17:45:24.924Z,6.23
2022-08-05T17:47:56.375Z,4.93
2022-08-05T17:50:30.436Z,5.20
2022-08-05T17:53:01.539Z,3.87
2022-08-05T17:55:37.735Z,5.80
2022-08-05T17:58:11.303Z,3.90
2022-08-05T18:00:45.396Z,7.10
2022-08-05T18:03:48.384Z,6.37
2022-08-05T18:06:11.090Z,5.00
2022-08-05T18:08:44.937Z,5.63
2022-08-05T18:11:23.292Z,2.43
2022-08-05T18:13:55.380Z,7.97
2022-08-05T18:16:24.299Z,3.90
2022-08-05T18:18:52.711Z,6.70
2022-08-05T18:21:22.989Z,3.93
2022-08-05T18:23:55.028Z,5.30
2022-08-05T18:26:27.752Z,5.23
2022-08-05T18:28:58.632Z,3.63
2022-08-05T18:31:33.823Z,7.23
2022-08-05T18:34:06.101Z,4.63
2022-08-05T18:36:36.454Z,3.90
2022-08-05T18:39:09.587Z,3.00
2022-08-05T18:42:00.701Z,3.90
2022-08-05T18:44:35.225Z,5.60
2022-08-05T18:47:16.207Z,5.70
2022-08-05T18:50:01.996Z,3.77
2022-08-05T18:52:35.845Z,5.50
2022-08-05T18:55:10.381Z,4.00
2022-08-05T18:57:49.908Z,6.53
2022-08-05T19:00:26.975Z,8.10
2022-08-05T19:03:03.663Z,4.37
2022-08-05T19:06:12.512Z,5.63
2022-08-05T19:08:30.562Z,9.40
2022-08-05T19:11:04.708Z,6.83
2022-08-05T19:13:36.835Z,7.70
2022-08-05T19:16:24.398Z,4.00
2022-08-05T19:18:54.019Z,5.80
2022-08-05T19:21:27.392Z,6.57
2022-08-05T19:24:07.724Z,5.33
2022-08-05T19:26:54.221Z,7.47
2022-08-05T19:29:26.635Z,8.77
2022-08-05T19:32:05.004Z,6.83
2022-08-05T19:34:35.041Z,5.17
2022-08-05T19:37:03.817Z,3.37
2022-08-05T19:39:45.485Z,5.40
2022-08-05T19:42:35.371Z,5.07
2022-08-05T19:45:06.530Z,1.87
2022-08-05T19:47:37.390Z,3.57
2022-08-05T19:50:07.844Z,8.77
2022-08-05T19:52:40.991Z,7.60
2022-08-05T19:56:15.639Z,6.37
2022-08-05T19:58:19.499Z,11.63
2022-08-05T20:00:48.820Z,5.80
2022-08-05T20:03:17.288Z,6.80
2022-08-05T20:05:51.452Z,6.40
2022-08-05T20:08:20.689Z,5.37
2022-08-05T20:10:55.195Z,5.37
2022-08-05T20:13:54.534Z,3.73
2022-08-05T20:16:12.201Z,4.20
2022-08-05T20:18:41.026Z,3.00
2022-08-05T20:21:10.426Z,3.83
2022-08-05T20:23:50.293Z,4.93
2022-08-05T20:26:23.427Z,6.87
2022-08-05T20:28:55.717Z,5.67
2022-08-05T20:31:28.776Z,6.03
2022-08-05T20:34:05.616Z,9.20
2022-08-05T20:36:36.906Z,4.87
2022-08-05T20:39:07.705Z,4.27
2022-08-05T20:41:45.084Z,3.73
2022-08-05T20:44:16.900Z,6.07
2022-08-05T20:46:46.923Z,5.60
2022-08-05T20:49:18.455Z,3.80
2022-08-05T20:51:53.397Z,8.83
2022-08-05T20:54:22.560Z,8.30
2022-08-05T20:56:54.627Z,7.30
2022-08-05T20:59:26.418Z,4.03
2022-08-05T21:01:58.071Z,6.13
2022-08-05T21:04:28.077Z,6.10
2022-08-05T21:06:57.503Z,8.00
2022-08-05T21:09:26.484Z,6.23
2022-08-05T21:12:09.701Z,7.30
2022-08-05T21:14:40.007Z,8.77
2022-08-05T21:17:08.424Z,5.20
2022-08-05T21:19:46.849Z,6.10
2022-08-05T21:22:17.805Z,4.80
2022-08-05T21:24:51.513Z,7.10
2022-08-05T21:27:25.232Z,5.33
2022-08-05T21:29:56.427Z,4.17
2022-08-05T21:32:27.231Z,9.67
2022-08-05T21:35:08.974Z,3.43
2022-08-05T21:37:47.185Z,6.83
2022-08-05T21:40:16.756Z,7.40
2022-08-05T21:42:47.406Z,6.97
2022-08-05T21:45:24.967Z,7.00
2022-08-05T21:47:57.894Z,4.93
2022-08-05T21:50:26.880Z,8.07
2022-08-05T21:52:58.785Z,13.57
2022-08-05T21:56:01.061Z,7.33
2022-08-05T21:58:24.853Z,7.43
2022-08-05T22:01:00.871Z,5.40
2022-08-05T22:03:51.620Z,8.43
2022-08-05T22:06:22.749Z,8.87
2022-08-05T22:09:13.160Z,11.40
2022-08-05T22:11:42.737Z,8.10
2022-08-05T22:14:35.161Z,12.40
2022-08-05T22:17:05.053Z,8.90
2022-08-05T22:20:00.724Z,11.47
2022-08-05T22:22:27.959Z,4.77
2022-08-05T22:25:18.172Z,4.83
2022-08-05T22:28:10.722Z,3.03
2022-08-05T22:30:44.230Z,6.63
2022-08-05T22:33:57.849Z,6.00
2022-08-05T22:36:15.577Z,4.97
2022-08-05T22:38:47.945Z,7.30
2022-08-05T22:42:05.711Z,4.80
2022-08-05T22:44:09.382Z,4.70
2022-08-05T22:46:42.424Z,10.83
2022-08-05T22:50:17.672Z,3.23
2022-08-05T22:52:07.633Z,7.17
2022-08-05T22:54:48.960Z,5.37
2022-08-05T22:57:17.526Z,3.97
2022-08-05T22:59:51.924Z,11.77
2022-08-05T23:02:29.463Z,6.90
2022-08-05T23:05:01.985Z,4.00
2022-08-05T23:07:43.787Z,3.23
2022-08-05T23:10:14.328Z,9.30
2022-08-05T23:12:43.994Z,6.73
2022-08-05T23:15:13.182Z,5.70
2022-08-05T23:18:01.402Z,5.77
2022-08-05T23:20:32.480Z,5.70
2022-08-05T23:23:06.025Z,4.70
2022-08-05T23:25:54.723Z,7.63
2022-08-05T23:28:28.545Z,7.53
2022-08-05T23:31:03.707Z,11.93
2022-08-05T23:34:03.191Z,5.37
2022-08-05T23:36:39.710Z,5.30
2022-08-05T23:39:17.080Z,6.10
2022-08-05T23:41:52.434Z,7.90
2022-08-05T23:44:24.980Z,6.90
2022-08-05T23:46:56.176Z,6.43
2022-08-05T23:49:35.702Z,6.33
2022-08-05T23:52:25.277Z,9.53
2022-08-05T23:54:54.904Z,4.80
2022-08-05T23:57:28.017Z,5.37
